createdAt,value
2019-01-16T00:01:25.989Z,7.60
2019-01-16T00:04:05.752Z,7.80
2019-01-16T00:06:53.890Z,8.10
2019-01-16T00:09:42.030Z,7.70
2019-01-16T00:12:30.856Z,7.50
2019-01-16T00:15:22.992Z,7.80
2019-01-16T00:18:07.984Z,7.90
2019-01-16T00:20:57.264Z,7.90
2019-01-16T00:23:40.383Z,7.80
2019-01-16T00:26:28.601Z,7.70
2019-01-16T00:29:16.464Z,7.50
2019-01-16T00:32:10.949Z,7.60
2019-01-16T00:35:06.234Z,7.90
2019-01-16T00:38:04.713Z,7.60
2019-01-16T00:41:06.164Z,7.90
2019-01-16T00:44:07.621Z,7.40
2019-01-16T00:46:48.692Z,7.50
2019-01-16T00:49:36.320Z,7.50
2019-01-16T00:52:40.780Z,7.80
2019-01-16T00:55:34.209Z,7.70
2019-01-16T00:58:25.964Z,7.50
2019-01-16T01:01:05.912Z,8.30
2019-01-16T01:03:53.721Z,7.60
2019-01-16T01:06:49.028Z,7.40
2019-01-16T01:09:36.452Z,7.80
2019-01-16T01:12:24.318Z,7.80
2019-01-16T01:15:06.101Z,7.70
2019-01-16T01:17:48.104Z,7.80
2019-01-16T01:20:46.458Z,8.00
2019-01-16T01:23:35.167Z,7.50
2019-01-16T01:26:21.535Z,7.30
2019-01-16T01:29:08.833Z,7.60
2019-01-16T01:31:56.232Z,7.80
2019-01-16T01:34:40.957Z,7.60
2019-01-16T01:40:05.961Z,8.10
2019-01-16T01:43:03.948Z,7.80
2019-01-16T01:45:51.429Z,7.50
2019-01-16T01:48:40.845Z,7.70
2019-01-16T01:51:24.477Z,7.60
2019-01-16T01:54:20.813Z,7.80
2019-01-16T01:57:13.468Z,8.10
2019-01-16T02:00:01.329Z,7.90
2019-01-16T02:02:48.680Z,7.20
2019-01-16T02:05:33.300Z,7.60
2019-01-16T02:08:28.307Z,7.50
2019-01-16T02:11:23.309Z,7.70
2019-01-16T02:14:10.804Z,7.40
2019-01-16T02:16:53.140Z,8.20
2019-01-16T02:19:48.421Z,8.00
2019-01-16T02:22:36.156Z,7.50
2019-01-16T02:25:32.592Z,7.90
2019-01-16T02:28:09.105Z,7.90
2019-01-16T02:30:56.588Z,7.50
2019-01-16T02:33:48.620Z,7.60
2019-01-16T02:36:32.744Z,8.40
2019-01-16T02:39:28.623Z,8.60
2019-01-16T02:42:26.002Z,8.40
2019-01-16T02:45:25.358Z,7.90
2019-01-16T02:48:13.958Z,7.90
2019-01-16T02:51:01.552Z,7.70
2019-01-16T02:53:53.349Z,7.70
2019-01-16T02:56:41.531Z,8.00
2019-01-16T02:59:19.809Z,8.00
2019-01-16T03:02:09.690Z,8.30
2019-01-16T03:04:54.360Z,7.30
2019-01-16T03:07:35.326Z,7.60
2019-01-16T03:10:24.733Z,7.50
2019-01-16T03:13:04.552Z,7.40
2019-01-16T03:15:45.386Z,7.50
2019-01-16T03:18:36.752Z,8.10
2019-01-16T03:21:24.154Z,7.80
2019-01-16T03:24:27.908Z,7.40
2019-01-16T03:27:29.512Z,7.20
2019-01-16T03:30:17.553Z,8.00
2019-01-16T03:33:13.703Z,7.90
2019-01-16T03:36:07.136Z,8.00
2019-01-16T03:38:46.819Z,7.80
2019-01-16T03:41:38.650Z,8.10
2019-01-16T03:44:15.688Z,7.70
2019-01-16T03:47:05.175Z,7.60
2019-01-16T03:50:02.560Z,7.80
2019-01-16T03:53:06.749Z,7.80
2019-01-16T03:55:53.840Z,7.90
2019-01-16T03:58:51.764Z,7.50
2019-01-16T04:01:52.577Z,7.80
2019-01-16T04:04:32.551Z,8.30
2019-01-16T04:07:15.268Z,8.40
2019-01-16T04:10:00.737Z,8.10
2019-01-16T04:13:01.862Z,8.30
2019-01-16T04:15:49.204Z,8.60
2019-01-16T04:18:36.711Z,8.40
2019-01-16T04:21:24.298Z,8.10
2019-01-16T04:24:17.409Z,8.00
2019-01-16T04:27:09.354Z,8.40
2019-01-16T04:30:08.797Z,8.20
2019-01-16T04:32:57.589Z,8.90
2019-01-16T04:35:53.216Z,9.40
2019-01-16T04:38:40.872Z,8.80
2019-01-16T04:41:28.906Z,9.40
2019-01-16T04:44:12.429Z,9.70
2019-01-16T04:46:57.918Z,9.90
2019-01-16T04:49:49.952Z,9.60
2019-01-16T04:52:47.802Z,9.70
2019-01-16T04:55:55.419Z,9.40
2019-01-16T04:58:43.352Z,9.50
2019-01-16T05:01:31.154Z,9.00
2019-01-16T05:04:23.527Z,9.20
2019-01-16T05:07:19.428Z,9.10
2019-01-16T05:10:17.735Z,9.10
2019-01-16T05:13:10.659Z,9.00
2019-01-16T05:15:58.623Z,8.60
2019-01-16T05:18:49.176Z,9.00
2019-01-16T05:21:47.468Z,8.70
2019-01-16T05:24:51.819Z,8.30
2019-01-16T05:27:39.426Z,8.10
2019-01-16T05:30:36.469Z,8.40
2019-01-16T05:33:37.628Z,7.80
2019-01-16T05:36:27.296Z,7.60
2019-01-16T05:39:34.377Z,8.20
2019-01-16T05:42:26.796Z,8.60
2019-01-16T05:48:15.903Z,8.40
2019-01-16T05:51:19.843Z,7.90
2019-01-16T05:54:13.688Z,7.60
2019-01-16T05:57:11.483Z,7.50
2019-01-16T05:59:53.865Z,8.30
2019-01-16T06:02:42.666Z,8.80
2019-01-16T06:05:30.556Z,9.90
2019-01-16T06:11:13.017Z,8.90
2019-01-16T06:14:01.028Z,7.60
2019-01-16T06:16:50.501Z,8.00
2019-01-16T06:19:40.353Z,8.90
2019-01-16T06:22:31.909Z,8.00
2019-01-16T06:25:14.101Z,8.20
2019-01-16T06:28:18.629Z,7.90
2019-01-16T06:31:15.907Z,8.40
2019-01-16T06:34:16.934Z,8.20
2019-01-16T06:36:56.385Z,8.30
2019-01-16T06:39:45.134Z,8.60
2019-01-16T06:42:40.147Z,8.20
2019-01-16T06:45:19.964Z,8.10
2019-01-16T06:48:07.497Z,8.40
2019-01-16T06:50:55.149Z,8.40
2019-01-16T06:53:59.063Z,8.50
2019-01-16T06:56:54.453Z,8.60
2019-01-16T07:00:01.946Z,8.60
2019-01-16T07:02:50.901Z,8.60
2019-01-16T07:05:34.358Z,8.80
2019-01-16T07:08:21.887Z,8.50
2019-01-16T07:11:15.028Z,8.60
2019-01-16T07:14:10.092Z,8.80
2019-01-16T07:17:05.231Z,8.30
2019-01-16T07:20:00.257Z,7.90
2019-01-16T07:22:52.362Z,8.20
2019-01-16T07:25:50.443Z,8.30
2019-01-16T07:28:48.091Z,8.20
2019-01-16T07:34:37.155Z,7.70
2019-01-16T07:37:19.202Z,8.00
2019-01-16T07:40:13.942Z,8.40
2019-01-16T07:43:02.901Z,7.80
2019-01-16T07:45:50.735Z,7.60
2019-01-16T07:48:48.505Z,7.90
2019-01-16T07:51:37.353Z,7.70
2019-01-16T07:54:24.375Z,7.80
2019-01-16T07:57:19.092Z,8.00
2019-01-16T08:00:07.729Z,7.50
2019-01-16T08:02:55.658Z,7.40
2019-01-16T08:05:53.762Z,7.70
2019-01-16T08:08:34.844Z,7.60
2019-01-16T08:11:33.200Z,7.50
2019-01-16T08:14:20.656Z,7.50
2019-01-16T08:17:19.718Z,7.70
2019-01-16T08:20:25.079Z,7.50
2019-01-16T08:23:30.025Z,7.20
2019-01-16T08:26:21.720Z,7.20
2019-01-16T08:29:22.520Z,7.40
2019-01-16T08:32:09.573Z,7.60
2019-01-16T08:35:05.090Z,7.50
2019-01-16T08:38:01.189Z,7.80
2019-01-16T08:40:48.680Z,7.60
2019-01-16T08:43:32.232Z,7.70
2019-01-16T08:46:21.133Z,7.90
2019-01-16T08:49:08.662Z,8.40
2019-01-16T08:52:12.395Z,8.30
2019-01-16T08:55:01.329Z,8.20
2019-01-16T08:57:56.224Z,9.20
2019-01-16T09:00:51.128Z,8.00
2019-01-16T09:03:42.984Z,8.10
2019-01-16T09:06:38.067Z,8.20
2019-01-16T09:09:41.358Z,7.80
2019-01-16T09:12:38.940Z,8.20
2019-01-16T09:15:35.041Z,7.90
2019-01-16T09:18:14.240Z,7.70
2019-01-16T09:21:02.217Z,7.40
2019-01-16T09:23:51.309Z,7.60
2019-01-16T09:26:42.388Z,7.40
2019-01-16T09:29:31.241Z,7.50
2019-01-16T09:32:23.072Z,7.80
2019-01-16T09:35:15.118Z,8.30
2019-01-16T09:38:02.971Z,7.90
2019-01-16T09:40:53.804Z,8.40
2019-01-16T09:43:34.514Z,7.60
2019-01-16T09:46:35.874Z,7.80
2019-01-16T09:49:37.316Z,7.90
2019-01-16T09:52:35.626Z,7.30
2019-01-16T09:55:31.162Z,7.30
2019-01-16T09:58:15.157Z,7.20
2019-01-16T10:01:06.911Z,7.30
2019-01-16T10:03:54.717Z,7.40
2019-01-16T10:06:55.475Z,7.50
2019-01-16T10:09:37.965Z,7.60
2019-01-16T10:12:42.180Z,7.30
2019-01-16T10:15:32.168Z,7.30
2019-01-16T10:18:27.717Z,7.50
2019-01-16T10:21:08.349Z,7.10
2019-01-16T10:23:57.335Z,7.20
2019-01-16T10:26:55.380Z,7.00
2019-01-16T10:29:44.443Z,7.20
2019-01-16T10:32:30.561Z,7.20
2019-01-16T10:35:18.101Z,7.10
2019-01-16T10:38:12.785Z,8.10
2019-01-16T10:41:12.452Z,7.60
2019-01-16T10:43:52.843Z,7.70
2019-01-16T10:46:53.900Z,7.30
2019-01-16T10:49:48.463Z,7.50
2019-01-16T10:52:37.461Z,7.40
2019-01-16T10:55:26.180Z,7.60
2019-01-16T10:58:11.686Z,7.70
2019-01-16T11:00:56.728Z,7.60
2019-01-16T11:03:45.689Z,7.90
2019-01-16T11:06:43.766Z,7.30
2019-01-16T11:09:42.175Z,7.80
2019-01-16T11:12:30.113Z,7.80
2019-01-16T11:15:19.173Z,8.00
2019-01-16T11:18:06.880Z,7.40
2019-01-16T11:21:01.679Z,7.70
2019-01-16T11:23:50.736Z,7.70
2019-01-16T11:26:33.861Z,8.10
2019-01-16T11:29:22.626Z,8.10
2019-01-16T11:32:23.586Z,7.80
2019-01-16T11:35:12.476Z,7.70
2019-01-16T11:38:10.595Z,7.70
2019-01-16T11:40:59.457Z,7.70
2019-01-16T11:43:42.708Z,7.70
2019-01-16T11:46:31.054Z,7.90
2019-01-16T11:49:25.926Z,7.90
2019-01-16T11:52:20.143Z,7.50
2019-01-16T11:55:06.887Z,7.60
2019-01-16T11:58:07.574Z,7.50
2019-01-16T12:00:52.750Z,7.40
2019-01-16T12:03:47.546Z,7.50
2019-01-16T12:06:36.477Z,7.20
2019-01-16T12:09:31.576Z,7.70
2019-01-16T12:12:34.389Z,7.50
2019-01-16T12:15:22.788Z,7.40
2019-01-16T12:18:10.484Z,7.70
2019-01-16T12:21:05.144Z,8.40
2019-01-16T12:24:09.257Z,8.10
2019-01-16T12:26:53.569Z,7.70
2019-01-16T12:29:42.980Z,7.60
2019-01-16T12:32:37.698Z,8.20
2019-01-16T12:35:26.626Z,8.20
2019-01-16T12:38:15.496Z,7.40
2019-01-16T12:41:02.232Z,7.70
2019-01-16T12:43:54.864Z,7.80
2019-01-16T12:46:50.161Z,8.30
2019-01-16T12:49:38.225Z,8.00
2019-01-16T12:52:42.208Z,7.80
2019-01-16T12:55:37.356Z,7.50
2019-01-16T12:58:29.070Z,7.30
2019-01-16T13:01:21.852Z,7.40
2019-01-16T13:04:11.701Z,8.10
2019-01-16T13:07:09.646Z,8.30
2019-01-16T13:09:56.048Z,8.10
2019-01-16T13:12:51.381Z,7.80
2019-01-16T13:15:47.710Z,8.10
2019-01-16T13:18:32.891Z,7.40
2019-01-16T13:21:21.105Z,8.90
2019-01-16T13:24:22.151Z,8.00
2019-01-16T13:27:03.027Z,8.50
2019-01-16T13:29:50.752Z,8.30
2019-01-16T13:32:18.641Z,7.60
2019-01-16T13:35:07.548Z,7.80
2019-01-16T13:37:46.500Z,7.40
2019-01-16T13:40:31.056Z,7.00
2019-01-16T13:43:19.611Z,7.30
2019-01-16T13:46:11.537Z,7.50
2019-01-16T13:49:03.360Z,7.90
2019-01-16T13:51:53.041Z,7.60
2019-01-16T13:54:41.212Z,7.20
2019-01-16T13:57:26.119Z,8.30
2019-01-16T14:00:14.313Z,8.00
2019-01-16T14:03:21.813Z,7.60
2019-01-16T14:06:20.713Z,8.10
2019-01-16T14:09:20.128Z,8.30
2019-01-16T14:12:07.743Z,8.00
2019-01-16T14:15:15.003Z,7.60
2019-01-16T14:18:21.781Z,7.60
2019-01-16T14:21:10.167Z,7.80
2019-01-16T14:23:59.176Z,8.00
2019-01-16T14:26:48.152Z,8.90
2019-01-16T14:29:33.152Z,8.30
2019-01-16T14:32:30.988Z,8.60
2019-01-16T14:35:18.855Z,8.70
2019-01-16T14:38:06.788Z,8.40
2019-01-16T14:40:54.332Z,7.60
2019-01-16T14:43:41.727Z,7.60
2019-01-16T14:46:29.217Z,8.10
2019-01-16T14:49:19.736Z,7.90
2019-01-16T14:52:07.570Z,8.00
2019-01-16T14:54:55.538Z,8.70
2019-01-16T14:58:00.145Z,8.40
2019-01-16T15:00:48.381Z,8.80
2019-01-16T15:03:40.719Z,8.00
2019-01-16T15:06:28.549Z,8.00
2019-01-16T15:09:16.091Z,8.30
2019-01-16T15:12:14.250Z,8.00
2019-01-16T15:15:01.676Z,7.90
2019-01-16T15:17:53.608Z,8.70
2019-01-16T15:20:52.119Z,8.60
2019-01-16T15:23:35.549Z,8.00
2019-01-16T15:26:13.935Z,7.70
2019-01-16T15:29:06.655Z,7.50
2019-01-16T15:31:54.133Z,7.40
2019-01-16T15:34:49.034Z,7.10
2019-01-16T15:37:47.189Z,7.80
2019-01-16T15:40:42.627Z,7.90
2019-01-16T15:43:34.555Z,8.30
2019-01-16T15:46:14.684Z,8.00
2019-01-16T15:49:02.337Z,8.00
2019-01-16T15:51:49.863Z,7.60
2019-01-16T15:54:37.394Z,7.60
2019-01-16T15:57:37.996Z,7.70
2019-01-16T16:00:41.397Z,7.80
2019-01-16T16:03:33.060Z,7.70
2019-01-16T16:06:34.003Z,7.90
2019-01-16T16:09:28.669Z,7.40
2019-01-16T16:12:29.507Z,7.60
2019-01-16T16:15:21.453Z,8.00
2019-01-16T16:18:28.404Z,8.10
2019-01-16T16:21:36.912Z,8.30
2019-01-16T16:24:24.552Z,8.40
2019-01-16T16:27:19.760Z,8.60
2019-01-16T16:30:16.402Z,8.30
2019-01-16T16:33:04.035Z,8.20
2019-01-16T16:35:51.870Z,9.10
2019-01-16T16:38:39.491Z,8.90
2019-01-16T16:41:34.293Z,9.00
2019-01-16T16:44:22.333Z,9.70
2019-01-16T16:47:11.292Z,9.70
2019-01-16T16:50:18.460Z,9.70
2019-01-16T16:53:07.443Z,10.00
2019-01-16T16:55:59.295Z,9.30
2019-01-16T17:07:04.868Z,9.40
2019-01-16T17:10:00.257Z,8.80
2019-01-16T17:12:52.446Z,8.20
2019-01-16T17:15:36.801Z,8.60
2019-01-16T17:18:26.173Z,8.30
2019-01-16T17:21:16.494Z,8.90
2019-01-16T17:24:04.061Z,8.80
2019-01-16T17:27:04.929Z,8.70
2019-01-16T17:29:52.404Z,9.00
2019-01-16T17:32:47.664Z,8.30
2019-01-16T17:35:35.366Z,8.30
2019-01-16T17:38:36.624Z,9.00
2019-01-16T17:41:28.785Z,9.10
2019-01-16T17:44:33.288Z,7.90
2019-01-16T17:47:22.571Z,8.90
2019-01-16T17:50:11.401Z,9.00
2019-01-16T17:52:59.232Z,9.40
2019-01-16T17:55:48.200Z,9.10
2019-01-16T17:58:35.751Z,8.80
2019-01-16T18:01:16.081Z,8.10
2019-01-16T18:04:08.216Z,8.30
2019-01-16T18:06:58.692Z,8.50
2019-01-16T18:09:46.883Z,9.10
2019-01-16T18:12:35.553Z,8.80
2019-01-16T18:15:25.190Z,8.30
2019-01-16T18:18:20.209Z,9.20
2019-01-16T18:21:21.311Z,8.10
2019-01-16T18:24:28.213Z,8.00
2019-01-16T18:27:16.154Z,7.70
2019-01-16T18:30:03.913Z,8.20
2019-01-16T18:32:59.116Z,7.80
2019-01-16T18:36:01.064Z,8.30
2019-01-16T18:38:55.024Z,8.10
2019-01-16T18:41:38.781Z,7.70
2019-01-16T18:44:30.735Z,8.10
2019-01-16T18:47:32.055Z,8.10
2019-01-16T18:50:23.789Z,8.00
2019-01-16T18:53:12.741Z,7.80
2019-01-16T18:56:04.904Z,7.60
2019-01-16T18:58:49.948Z,7.40
2019-01-16T19:01:45.287Z,7.10
2019-01-16T19:04:33.297Z,7.00
2019-01-16T19:07:28.406Z,7.50
2019-01-16T19:10:18.237Z,7.30
2019-01-16T19:13:05.938Z,7.40
2019-01-16T19:15:49.981Z,7.30
2019-01-16T19:18:30.953Z,7.50
2019-01-16T19:21:35.276Z,7.00
2019-01-16T19:24:26.805Z,7.70
2019-01-16T19:27:24.737Z,7.20
2019-01-16T19:30:24.257Z,7.00
2019-01-16T19:33:07.548Z,7.40
2019-01-16T19:36:02.373Z,8.10
2019-01-16T19:38:49.909Z,7.50
2019-01-16T19:41:44.641Z,7.50
2019-01-16T19:44:33.557Z,7.10
2019-01-16T19:47:22.822Z,7.60
2019-01-16T19:50:11.812Z,7.50
2019-01-16T19:53:15.896Z,7.60
2019-01-16T19:56:13.799Z,7.20
2019-01-16T19:59:21.021Z,6.80
2019-01-16T20:02:09.227Z,7.30
2019-01-16T20:05:07.580Z,7.30
2019-01-16T20:08:07.423Z,7.10
2019-01-16T20:11:11.846Z,7.60
2019-01-16T20:14:03.961Z,6.80
2019-01-16T20:16:51.589Z,6.80
2019-01-16T20:19:30.916Z,7.40
2019-01-16T20:22:38.172Z,7.60
2019-01-16T20:25:29.224Z,7.80
2019-01-16T20:28:21.149Z,7.10
2019-01-16T20:31:15.870Z,6.90
2019-01-16T20:34:13.817Z,7.40
2019-01-16T20:37:15.164Z,7.30
2019-01-16T20:40:10.187Z,7.80
2019-01-16T20:42:55.367Z,7.20
2019-01-16T20:45:53.543Z,7.60
2019-01-16T20:48:52.753Z,7.00
2019-01-16T20:51:43.726Z,7.10
2019-01-16T20:54:48.072Z,7.40
2019-01-16T20:57:33.658Z,7.10
2019-01-16T21:00:28.732Z,7.00
2019-01-16T21:03:33.255Z,7.00
2019-01-16T21:06:32.773Z,6.90
2019-01-16T21:09:20.228Z,7.20
2019-01-16T21:12:03.732Z,7.20
2019-01-16T21:14:55.856Z,7.20
2019-01-16T21:17:35.723Z,7.20
2019-01-16T21:20:38.088Z,7.40
2019-01-16T21:23:31.657Z,6.80
2019-01-16T21:26:14.629Z,7.10
2019-01-16T21:29:17.865Z,7.20
2019-01-16T21:32:20.730Z,7.20
2019-01-16T21:35:05.691Z,7.10
2019-01-16T21:37:53.269Z,7.30
2019-01-16T21:40:45.225Z,7.10
2019-01-16T21:43:33.036Z,7.30
2019-01-16T21:46:36.921Z,6.80
2019-01-16T21:49:32.540Z,7.00
2019-01-16T21:52:16.690Z,7.50
2019-01-16T21:55:11.508Z,7.30
2019-01-16T21:58:06.483Z,7.70
2019-01-16T22:01:00.075Z,8.00
2019-01-16T22:03:44.542Z,7.30
2019-01-16T22:06:32.032Z,7.40
2019-01-16T22:09:19.460Z,7.20
2019-01-16T22:12:11.313Z,7.00
2019-01-16T22:15:12.438Z,7.10
2019-01-16T22:18:03.650Z,7.10
2019-01-16T22:21:09.446Z,7.10
2019-01-16T22:23:59.998Z,7.40
2019-01-16T22:26:49.428Z,7.30
2019-01-16T22:29:37.254Z,8.10
2019-01-16T22:32:19.878Z,8.30
2019-01-16T22:35:21.300Z,7.50
2019-01-16T22:38:10.140Z,7.40
2019-01-16T22:41:17.517Z,7.50
2019-01-16T22:44:18.589Z,7.50
2019-01-16T22:47:13.540Z,7.10
2019-01-16T22:50:05.728Z,7.10
2019-01-16T22:52:50.286Z,7.30
2019-01-16T22:55:51.196Z,7.00
2019-01-16T22:58:41.305Z,7.00
2019-01-16T23:01:36.007Z,6.70
2019-01-16T23:04:26.272Z,7.20
2019-01-16T23:07:21.203Z,6.90
2019-01-16T23:10:03.274Z,7.20
2019-01-16T23:12:55.508Z,6.90
2019-01-16T23:15:45.004Z,6.70
2019-01-16T23:18:33.846Z,6.60
2019-01-16T23:21:22.313Z,6.40
2019-01-16T23:24:11.346Z,6.20
2019-01-16T23:26:59.974Z,6.20
2019-01-16T23:29:56.260Z,6.70
2019-01-16T23:32:49.403Z,6.30
2019-01-16T23:35:53.744Z,6.00
2019-01-16T23:38:45.651Z,5.90
2019-01-16T23:41:35.011Z,6.50
2019-01-16T23:44:30.147Z,6.60
2019-01-16T23:47:19.076Z,6.70
2019-01-16T23:50:08.919Z,6.70
2019-01-16T23:53:01.919Z,6.40
2019-01-16T23:55:59.784Z,6.50
2019-01-16T23:58:36.488Z,6.20
